createdAt,value
2023-07-17T00:00:39.835Z,12.50
2023-07-17T00:03:13.443Z,12.60
2023-07-17T00:05:41.819Z,12.60
2023-07-17T00:08:11.354Z,12.60
2023-07-17T00:10:39.964Z,12.80
2023-07-17T00:13:07.521Z,12.80
2023-07-17T00:15:34.989Z,12.80
2023-07-17T00:18:02.529Z,12.80
2023-07-17T00:20:30.038Z,12.90
2023-07-17T00:22:57.535Z,12.90
2023-07-17T00:25:25.178Z,12.90
2023-07-17T00:27:52.600Z,12.90
2023-07-17T00:30:19.987Z,12.90
2023-07-17T00:32:47.423Z,12.90
2023-07-17T00:35:14.966Z,12.80
2023-07-17T00:37:47.255Z,12.80
2023-07-17T00:40:14.911Z,12.80
2023-07-17T00:42:42.359Z,12.80
2023-07-17T00:45:09.864Z,12.80
2023-07-17T00:47:37.590Z,12.80
2023-07-17T00:50:05.762Z,12.80
2023-07-17T00:52:34.854Z,12.80
2023-07-17T00:55:02.704Z,12.80
2023-07-17T00:57:30.832Z,12.80
2023-07-17T00:59:58.401Z,12.80
2023-07-17T01:02:25.975Z,12.80
2023-07-17T01:04:53.482Z,12.80
2023-07-17T01:07:20.938Z,12.70
2023-07-17T01:09:49.397Z,12.70
2023-07-17T01:12:16.990Z,12.60
2023-07-17T01:14:44.437Z,12.60
2023-07-17T01:17:12.046Z,12.50
2023-07-17T01:19:40.107Z,12.40
2023-07-17T01:22:21.924Z,12.30
2023-07-17T01:24:51.519Z,12.30
2023-07-17T01:27:19.620Z,12.30
2023-07-17T01:29:47.217Z,12.20
2023-07-17T01:32:16.723Z,12.10
2023-07-17T01:34:44.398Z,12.10
2023-07-17T01:37:12.451Z,12.10
2023-07-17T01:39:40.033Z,12.10
2023-07-17T01:42:07.528Z,12.10
2023-07-17T01:44:34.935Z,12.10
2023-07-17T01:47:02.399Z,12.10
2023-07-17T01:49:29.800Z,12.10
2023-07-17T01:51:57.639Z,12.10
2023-07-17T01:54:25.175Z,12.10
2023-07-17T01:56:52.958Z,12.10
2023-07-17T01:59:20.400Z,12.10
2023-07-17T02:01:47.949Z,12.10
2023-07-17T02:04:15.776Z,12.00
2023-07-17T02:06:43.249Z,12.00
2023-07-17T02:09:10.628Z,12.00
2023-07-17T02:11:38.088Z,12.00
2023-07-17T02:14:05.938Z,12.00
2023-07-17T02:16:33.656Z,11.90
2023-07-17T02:19:01.178Z,11.90
2023-07-17T02:21:28.950Z,11.90
2023-07-17T02:23:57.183Z,11.90
2023-07-17T02:26:25.156Z,11.80
2023-07-17T02:28:52.672Z,11.80
2023-07-17T02:31:20.517Z,11.80
2023-07-17T02:33:48.217Z,11.80
2023-07-17T02:36:15.748Z,11.80
2023-07-17T02:38:45.383Z,11.80
2023-07-17T02:41:15.302Z,11.80
2023-07-17T02:43:42.942Z,11.80
2023-07-17T02:46:10.421Z,11.80
2023-07-17T02:48:38.068Z,11.80
2023-07-17T02:51:05.479Z,11.80
2023-07-17T02:53:32.945Z,11.80
2023-07-17T02:56:00.419Z,11.80
2023-07-17T02:58:27.868Z,11.80
2023-07-17T03:00:55.372Z,11.80
2023-07-17T03:03:22.832Z,11.80
2023-07-17T03:05:50.382Z,11.80
2023-07-17T03:08:17.909Z,11.80
2023-07-17T03:10:45.502Z,11.80
2023-07-17T03:13:12.900Z,11.80
2023-07-17T03:15:40.463Z,11.80
2023-07-17T03:18:08.331Z,11.90
2023-07-17T03:20:35.933Z,11.90
2023-07-17T03:23:03.631Z,11.90
2023-07-17T03:25:31.274Z,12.00
2023-07-17T03:27:58.705Z,12.10
2023-07-17T03:30:26.180Z,12.10
2023-07-17T03:32:53.614Z,12.10
2023-07-17T03:35:21.207Z,12.20
2023-07-17T03:37:48.736Z,12.20
2023-07-17T03:40:16.245Z,12.30
2023-07-17T03:42:43.856Z,12.30
2023-07-17T03:45:11.528Z,12.30
2023-07-17T03:47:40.296Z,12.40
2023-07-17T03:50:08.171Z,12.40
2023-07-17T03:52:35.687Z,12.50
2023-07-17T03:55:04.140Z,12.40
2023-07-17T03:57:31.771Z,12.50
2023-07-17T03:59:59.555Z,12.50
2023-07-17T04:02:40.785Z,12.50
2023-07-17T04:05:11.882Z,12.50
2023-07-17T04:07:39.440Z,12.50
2023-07-17T04:10:07.022Z,12.50
2023-07-17T04:12:34.958Z,12.40
2023-07-17T04:15:03.388Z,12.40
2023-07-17T04:17:31.654Z,12.40
2023-07-17T04:19:59.175Z,12.40
2023-07-17T04:22:26.820Z,12.30
2023-07-17T04:24:54.863Z,12.30
2023-07-17T04:27:26.910Z,12.30
2023-07-17T04:29:54.713Z,12.30
2023-07-17T04:32:22.515Z,12.30
2023-07-17T04:34:50.104Z,12.30
2023-07-17T04:37:18.754Z,12.30
2023-07-17T04:39:46.254Z,12.30
2023-07-17T04:42:14.836Z,12.30
2023-07-17T04:44:45.101Z,12.30
2023-07-17T04:47:14.140Z,12.20
2023-07-17T04:49:41.740Z,12.20
2023-07-17T04:52:09.820Z,12.20
2023-07-17T04:54:37.335Z,12.30
2023-07-17T04:57:05.260Z,12.30
2023-07-17T04:59:33.824Z,12.30
2023-07-17T05:02:02.335Z,12.30
2023-07-17T05:04:30.191Z,12.30
2023-07-17T05:06:59.333Z,12.30
2023-07-17T05:09:27.343Z,12.40
2023-07-17T05:11:55.895Z,12.40
2023-07-17T05:14:24.548Z,12.40
2023-07-17T05:16:53.042Z,12.40
2023-07-17T05:19:22.471Z,12.50
2023-07-17T05:21:50.143Z,12.50
2023-07-17T05:24:17.840Z,12.50
2023-07-17T05:26:45.355Z,12.50
2023-07-17T05:29:12.884Z,12.50
2023-07-17T05:31:41.370Z,12.60
2023-07-17T05:34:08.939Z,12.60
2023-07-17T05:36:36.440Z,12.60
2023-07-17T05:39:04.361Z,12.70
2023-07-17T05:41:34.326Z,12.70
2023-07-17T05:44:02.374Z,12.80
2023-07-17T05:46:30.678Z,12.80
2023-07-17T05:48:58.379Z,12.80
2023-07-17T05:51:25.955Z,12.90
2023-07-17T05:53:54.260Z,12.90
2023-07-17T05:56:21.792Z,13.00
2023-07-17T05:58:50.418Z,13.10
2023-07-17T06:01:18.040Z,13.10
2023-07-17T06:03:46.943Z,13.20
2023-07-17T06:06:14.451Z,13.30
2023-07-17T06:08:42.334Z,13.30
2023-07-17T06:11:09.948Z,13.30
2023-07-17T06:13:37.364Z,13.40
2023-07-17T06:16:05.203Z,13.50
2023-07-17T06:18:32.858Z,13.80
2023-07-17T06:21:00.425Z,14.20
2023-07-17T06:23:28.062Z,14.60
2023-07-17T06:25:55.789Z,14.90
2023-07-17T06:28:23.463Z,15.20
2023-07-17T06:30:50.987Z,15.30
2023-07-17T06:33:18.509Z,15.30
2023-07-17T06:35:46.265Z,15.30
2023-07-17T06:38:13.757Z,15.20
2023-07-17T06:40:41.573Z,15.20
2023-07-17T06:43:09.722Z,15.10
2023-07-17T06:45:37.706Z,15.10
2023-07-17T06:48:05.327Z,15.00
2023-07-17T06:50:32.784Z,15.00
2023-07-17T06:53:00.335Z,15.00
2023-07-17T06:55:27.913Z,15.00
2023-07-17T06:57:55.418Z,15.10
2023-07-17T07:00:23.028Z,15.10
2023-07-17T07:02:50.540Z,15.10
2023-07-17T07:05:18.062Z,15.10
2023-07-17T07:07:45.559Z,15.20
2023-07-17T07:10:13.359Z,15.20
2023-07-17T07:12:41.349Z,15.20
2023-07-17T07:15:16.331Z,15.30
2023-07-17T07:17:43.941Z,15.30
2023-07-17T07:20:11.715Z,15.30
2023-07-17T07:22:39.210Z,15.40
2023-07-17T07:25:07.192Z,15.40
2023-07-17T07:27:34.744Z,15.40
2023-07-17T07:30:02.362Z,15.60
2023-07-17T07:32:29.868Z,15.60
2023-07-17T07:34:57.396Z,15.70
2023-07-17T07:37:25.008Z,15.70
2023-07-17T07:39:52.488Z,15.80
2023-07-17T07:42:19.969Z,15.80
2023-07-17T07:44:47.425Z,15.80
2023-07-17T07:47:15.171Z,15.80
2023-07-17T07:49:42.986Z,15.80
2023-07-17T07:52:10.380Z,15.80
2023-07-17T07:54:37.893Z,15.70
2023-07-17T07:57:05.726Z,15.70
2023-07-17T07:59:33.184Z,15.60
2023-07-17T08:02:01.118Z,15.50
2023-07-17T08:04:31.680Z,15.50
2023-07-17T08:06:59.263Z,15.70
2023-07-17T08:09:26.700Z,15.80
2023-07-17T08:11:54.155Z,16.10
2023-07-17T08:14:24.294Z,16.30
2023-07-17T08:16:51.998Z,16.60
2023-07-17T08:19:19.940Z,16.80
2023-07-17T08:21:47.388Z,16.90
2023-07-17T08:24:14.884Z,17.20
2023-07-17T08:26:42.476Z,17.40
2023-07-17T08:29:10.084Z,17.60
2023-07-17T08:31:38.308Z,17.90
2023-07-17T08:34:06.413Z,18.20
2023-07-17T08:36:34.342Z,18.30
2023-07-17T08:39:01.998Z,18.30
2023-07-17T08:41:29.820Z,18.20
2023-07-17T08:43:58.257Z,18.00
2023-07-17T08:46:25.840Z,17.80
2023-07-17T08:48:54.909Z,17.70
2023-07-17T08:51:22.746Z,17.70
2023-07-17T08:53:54.471Z,17.80
2023-07-17T08:56:22.310Z,17.80
2023-07-17T08:58:51.861Z,18.00
2023-07-17T09:01:19.515Z,18.30
2023-07-17T09:03:47.414Z,18.70
2023-07-17T09:06:15.858Z,19.00
2023-07-17T09:08:43.355Z,19.10
2023-07-17T09:11:10.837Z,19.10
2023-07-17T09:13:38.657Z,19.10
2023-07-17T09:16:33.133Z,19.20
2023-07-17T09:19:01.684Z,19.40
2023-07-17T09:21:29.441Z,19.50
2023-07-17T09:23:57.522Z,19.40
2023-07-17T09:26:25.965Z,19.40
2023-07-17T09:28:54.271Z,19.50
2023-07-17T09:31:28.659Z,19.60
2023-07-17T09:33:57.693Z,19.50
2023-07-17T09:36:25.623Z,19.30
2023-07-17T09:38:54.062Z,19.30
2023-07-17T09:41:25.078Z,19.60
2023-07-17T09:43:54.223Z,19.90
2023-07-17T09:46:21.963Z,20.20
2023-07-17T09:48:50.826Z,20.40
2023-07-17T09:51:19.225Z,20.80
2023-07-17T09:53:47.532Z,21.10
2023-07-17T09:56:19.408Z,21.30
2023-07-17T09:58:51.719Z,21.40
2023-07-17T10:01:20.350Z,21.00
2023-07-17T10:03:48.977Z,20.30
2023-07-17T10:06:17.109Z,19.60
2023-07-17T10:08:47.564Z,19.10
2023-07-17T10:11:17.148Z,18.40
2023-07-17T10:13:45.688Z,17.60
2023-07-17T10:16:14.645Z,16.90
2023-07-17T10:18:53.889Z,16.60
2023-07-17T10:21:21.842Z,16.30
2023-07-17T10:23:50.260Z,16.40
2023-07-17T10:26:19.715Z,16.50
2023-07-17T10:28:54.709Z,16.60
2023-07-17T10:31:24.470Z,16.70
2023-07-17T10:33:59.571Z,16.70
2023-07-17T10:36:43.295Z,16.60
2023-07-17T10:39:17.798Z,16.50
2023-07-17T10:41:45.401Z,16.10
2023-07-17T10:44:19.704Z,15.60
2023-07-17T10:46:48.135Z,15.30
2023-07-17T10:49:17.248Z,15.10
2023-07-17T10:51:45.687Z,15.00
2023-07-17T10:54:13.845Z,14.90
2023-07-17T10:56:42.271Z,14.80
2023-07-17T10:59:10.084Z,14.90
2023-07-17T11:01:37.598Z,15.10
2023-07-17T11:04:11.156Z,15.30
2023-07-17T11:06:38.678Z,15.60
2023-07-17T11:09:06.448Z,15.80
2023-07-17T11:11:34.193Z,16.10
2023-07-17T11:14:01.969Z,16.10
2023-07-17T11:16:29.690Z,16.10
2023-07-17T11:18:57.709Z,16.10
2023-07-17T11:21:26.457Z,16.10
2023-07-17T11:23:55.181Z,16.20
2023-07-17T11:26:26.705Z,16.40
2023-07-17T11:28:55.295Z,16.70
2023-07-17T11:31:27.054Z,16.90
2023-07-17T11:34:01.286Z,17.10
2023-07-17T11:36:45.877Z,17.10
2023-07-17T11:39:17.108Z,17.10
2023-07-17T11:41:46.140Z,17.10
2023-07-17T11:44:15.364Z,17.30
2023-07-17T11:46:43.772Z,17.30
2023-07-17T11:49:11.540Z,17.40
2023-07-17T11:51:45.726Z,17.30
2023-07-17T11:54:13.314Z,17.10
2023-07-17T11:56:42.420Z,16.90
2023-07-17T11:59:20.245Z,16.80
2023-07-17T12:01:48.666Z,16.80
2023-07-17T12:04:26.688Z,16.90
2023-07-17T12:06:55.110Z,17.20
2023-07-17T12:09:23.795Z,17.60
2023-07-17T12:11:52.010Z,17.90
2023-07-17T12:14:19.746Z,18.00
2023-07-17T12:16:47.658Z,18.00
2023-07-17T12:19:16.256Z,17.90
2023-07-17T12:21:44.628Z,17.90
2023-07-17T12:24:15.254Z,18.00
2023-07-17T12:26:43.352Z,18.30
2023-07-17T12:29:11.285Z,18.40
2023-07-17T12:31:39.112Z,18.40
2023-07-17T12:34:06.907Z,18.40
2023-07-17T12:36:34.360Z,18.30
2023-07-17T12:39:15.063Z,18.30
2023-07-17T12:41:42.936Z,18.40
2023-07-17T12:44:11.211Z,18.70
2023-07-17T12:46:38.809Z,19.00
2023-07-17T12:49:06.600Z,19.20
2023-07-17T12:51:34.093Z,19.20
2023-07-17T12:54:02.664Z,18.60
2023-07-17T12:56:30.745Z,18.10
2023-07-17T12:58:58.421Z,17.80
2023-07-17T13:01:26.063Z,17.80
2023-07-17T13:03:53.812Z,18.10
2023-07-17T13:06:21.667Z,18.40
2023-07-17T13:08:50.738Z,18.60
2023-07-17T13:11:18.776Z,18.80
2023-07-17T13:13:46.632Z,19.00
2023-07-17T13:16:14.268Z,19.20
2023-07-17T13:18:41.925Z,19.30
2023-07-17T13:21:09.400Z,19.30
2023-07-17T13:23:36.840Z,19.10
2023-07-17T13:26:05.168Z,18.30
2023-07-17T13:28:34.173Z,17.60
2023-07-17T13:31:10.041Z,17.00
2023-07-17T13:33:39.265Z,16.60
2023-07-17T13:36:07.617Z,16.60
2023-07-17T13:38:35.159Z,16.80
2023-07-17T13:41:02.875Z,17.20
2023-07-17T13:43:30.615Z,17.60
2023-07-17T13:45:58.427Z,17.80
2023-07-17T13:48:25.919Z,17.80
2023-07-17T13:50:53.378Z,17.80
2023-07-17T13:53:20.939Z,17.70
2023-07-17T13:55:48.499Z,17.60
2023-07-17T13:58:16.641Z,17.50
2023-07-17T14:00:45.109Z,17.50
2023-07-17T14:03:12.767Z,17.40
2023-07-17T14:05:40.377Z,17.40
2023-07-17T14:08:07.879Z,17.30
2023-07-17T14:10:35.472Z,17.30
2023-07-17T14:13:02.998Z,17.30
2023-07-17T14:15:30.515Z,17.30
2023-07-17T14:17:57.944Z,17.30
2023-07-17T14:20:25.708Z,17.30
2023-07-17T14:22:53.607Z,17.40
2023-07-17T14:25:21.738Z,17.50
2023-07-17T14:27:49.162Z,17.80
2023-07-17T14:30:17.285Z,17.90
2023-07-17T14:32:44.939Z,18.00
2023-07-17T14:35:12.443Z,18.10
2023-07-17T14:37:39.855Z,18.20
2023-07-17T14:40:07.774Z,18.20
2023-07-17T14:42:35.293Z,18.20
2023-07-17T14:45:02.830Z,18.20
2023-07-17T14:47:32.075Z,18.20
2023-07-17T14:50:00.741Z,18.10
2023-07-17T14:52:28.302Z,17.90
2023-07-17T14:54:55.880Z,17.80
2023-07-17T14:57:23.404Z,17.80
2023-07-17T14:59:50.991Z,17.80
2023-07-17T15:02:18.521Z,17.80
2023-07-17T15:04:45.991Z,17.80
2023-07-17T15:07:13.524Z,17.80
2023-07-17T15:09:41.059Z,18.10
2023-07-17T15:12:09.002Z,18.60
2023-07-17T15:14:36.484Z,19.10
2023-07-17T15:17:04.070Z,19.30
2023-07-17T15:19:31.610Z,19.20
2023-07-17T15:22:00.235Z,19.00
2023-07-17T15:24:27.790Z,18.80
2023-07-17T15:26:55.375Z,18.70
2023-07-17T15:29:22.971Z,18.70
2023-07-17T15:31:50.405Z,18.80
2023-07-17T15:34:17.994Z,18.90
2023-07-17T15:36:45.464Z,19.10
2023-07-17T15:39:12.980Z,19.20
2023-07-17T15:41:40.490Z,19.20
2023-07-17T15:44:07.999Z,19.40
2023-07-17T15:46:35.513Z,19.40
2023-07-17T15:49:03.932Z,19.30
2023-07-17T15:51:31.372Z,18.90
2023-07-17T15:53:58.782Z,18.80
2023-07-17T15:56:26.480Z,18.70
2023-07-17T15:58:53.902Z,18.60
2023-07-17T16:01:21.427Z,18.50
2023-07-17T16:03:49.117Z,18.60
2023-07-17T16:06:16.799Z,18.70
2023-07-17T16:08:44.530Z,18.80
2023-07-17T16:11:11.986Z,18.80
2023-07-17T16:13:39.650Z,18.80
2023-07-17T16:16:07.734Z,18.80
2023-07-17T16:18:37.743Z,18.80
2023-07-17T16:21:05.246Z,18.60
2023-07-17T16:23:33.485Z,18.50
2023-07-17T16:26:00.965Z,18.50
2023-07-17T16:28:28.422Z,18.50
2023-07-17T16:30:56.102Z,18.40
2023-07-17T16:33:23.667Z,18.40
2023-07-17T16:35:51.131Z,18.40
2023-07-17T16:38:19.047Z,18.40
2023-07-17T16:40:48.280Z,18.30
2023-07-17T16:43:15.766Z,18.30
2023-07-17T16:45:43.339Z,18.30
2023-07-17T16:48:14.978Z,18.30
2023-07-17T16:50:43.226Z,18.20
2023-07-17T16:53:10.691Z,18.20
2023-07-17T16:55:38.127Z,18.10
2023-07-17T16:58:05.740Z,18.10
2023-07-17T17:00:33.397Z,18.10
2023-07-17T17:03:01.171Z,18.10
2023-07-17T17:05:28.798Z,18.30
2023-07-17T17:07:56.438Z,18.70
2023-07-17T17:10:23.966Z,18.80
2023-07-17T17:12:51.380Z,18.90
2023-07-17T17:15:18.841Z,19.30
2023-07-17T17:17:46.382Z,19.60
2023-07-17T17:20:15.336Z,19.80
2023-07-17T17:22:42.850Z,19.80
2023-07-17T17:25:10.733Z,19.60
2023-07-17T17:27:38.344Z,19.50
2023-07-17T17:30:06.495Z,19.50
2023-07-17T17:32:34.069Z,19.70
2023-07-17T17:35:01.680Z,19.50
2023-07-17T17:37:29.364Z,19.50
2023-07-17T17:39:56.824Z,19.40
2023-07-17T17:42:24.256Z,19.40
2023-07-17T17:44:51.834Z,19.70
2023-07-17T17:47:19.363Z,19.90
2023-07-17T17:49:46.878Z,20.30
2023-07-17T17:52:19.919Z,20.30
2023-07-17T17:54:47.572Z,20.40
2023-07-17T17:57:15.150Z,20.50
2023-07-17T17:59:42.660Z,20.50
2023-07-17T18:02:10.244Z,20.90
2023-07-17T18:04:37.949Z,21.40
2023-07-17T18:07:05.507Z,21.70
2023-07-17T18:09:33.035Z,21.70
2023-07-17T18:12:00.497Z,21.30
2023-07-17T18:14:28.067Z,20.80
2023-07-17T18:16:55.515Z,20.50
2023-07-17T18:19:26.713Z,20.30
2023-07-17T18:21:54.459Z,20.10
2023-07-17T18:24:22.188Z,19.90
2023-07-17T18:26:49.644Z,19.90
2023-07-17T18:29:17.142Z,19.80
2023-07-17T18:31:44.859Z,19.80
2023-07-17T18:34:12.525Z,19.70
2023-07-17T18:36:40.240Z,19.40
2023-07-17T18:39:07.945Z,19.30
2023-07-17T18:41:35.535Z,19.00
2023-07-17T18:44:04.211Z,18.80
2023-07-17T18:46:31.817Z,18.50
2023-07-17T18:48:59.386Z,18.30
2023-07-17T18:51:27.006Z,18.10
2023-07-17T18:53:54.800Z,18.00
2023-07-17T18:56:22.986Z,17.80
2023-07-17T18:58:50.596Z,17.70
2023-07-17T19:01:18.358Z,17.60
2023-07-17T19:03:46.695Z,17.50
2023-07-17T19:06:14.168Z,17.40
2023-07-17T19:08:42.020Z,17.40
2023-07-17T19:11:17.522Z,17.30
2023-07-17T19:13:46.057Z,17.30
2023-07-17T19:16:13.813Z,17.30
2023-07-17T19:18:41.415Z,17.20
2023-07-17T19:21:09.052Z,17.20
2023-07-17T19:23:36.566Z,17.20
2023-07-17T19:26:04.699Z,17.10
2023-07-17T19:28:32.280Z,17.10
2023-07-17T19:30:59.902Z,17.00
2023-07-17T19:33:27.512Z,16.90
2023-07-17T19:35:55.115Z,16.80
2023-07-17T19:38:22.690Z,16.80
2023-07-17T19:40:50.334Z,16.70
2023-07-17T19:43:25.045Z,16.70
2023-07-17T19:45:53.434Z,16.60
2023-07-17T19:48:25.177Z,16.60
2023-07-17T19:50:52.730Z,16.50
2023-07-17T19:53:21.174Z,16.50
2023-07-17T19:55:48.698Z,16.50
2023-07-17T19:58:16.240Z,16.40
2023-07-17T20:00:44.389Z,16.30
2023-07-17T20:03:12.043Z,16.30
2023-07-17T20:05:39.668Z,16.30
2023-07-17T20:08:07.216Z,16.30
2023-07-17T20:10:34.774Z,16.20
2023-07-17T20:13:02.247Z,16.10
2023-07-17T20:15:29.790Z,16.00
2023-07-17T20:17:57.390Z,15.90
2023-07-17T20:20:25.032Z,15.80
2023-07-17T20:22:52.692Z,15.70
2023-07-17T20:25:20.269Z,15.50
2023-07-17T20:27:47.753Z,15.40
2023-07-17T20:30:16.211Z,15.30
2023-07-17T20:32:44.028Z,15.20
2023-07-17T20:35:25.837Z,15.10
2023-07-17T20:37:55.599Z,15.10
2023-07-17T20:40:23.423Z,14.90
2023-07-17T20:42:53.115Z,14.80
2023-07-17T20:45:30.852Z,14.70
2023-07-17T20:47:58.981Z,14.60
2023-07-17T20:50:26.869Z,14.50
2023-07-17T20:52:54.372Z,14.40
2023-07-17T20:55:22.200Z,14.30
2023-07-17T20:57:49.856Z,14.20
2023-07-17T21:00:17.496Z,14.10
2023-07-17T21:02:46.174Z,14.00
2023-07-17T21:05:13.698Z,14.00
2023-07-17T21:07:41.131Z,13.90
2023-07-17T21:10:08.836Z,13.90
2023-07-17T21:12:36.563Z,13.80
2023-07-17T21:15:04.253Z,13.80
2023-07-17T21:17:31.836Z,13.80
2023-07-17T21:19:59.329Z,13.80
2023-07-17T21:22:27.276Z,13.70
2023-07-17T21:24:54.983Z,13.70
2023-07-17T21:27:22.879Z,13.70
2023-07-17T21:29:50.392Z,13.60
2023-07-17T21:32:18.082Z,13.60
2023-07-17T21:34:45.604Z,13.60
2023-07-17T21:37:13.698Z,13.50
2023-07-17T21:39:43.128Z,13.40
2023-07-17T21:42:10.627Z,13.40
2023-07-17T21:44:38.615Z,13.30
2023-07-17T21:47:06.925Z,13.20
2023-07-17T21:49:34.556Z,13.10
2023-07-17T21:52:02.016Z,13.00
2023-07-17T21:54:29.568Z,12.80
2023-07-17T22:03:41.134Z,12.40
2023-07-17T22:06:08.795Z,12.30
2023-07-17T22:15:36.459Z,12.10
2023-07-17T22:45:30.490Z,11.90
2023-07-17T22:47:58.249Z,11.80
2023-07-17T23:11:01.606Z,11.40
2023-07-17T23:14:01.549Z,11.40
2023-07-17T23:30:18.618Z,11.20
2023-07-17T23:33:22.268Z,11.30
2023-07-17T23:42:13.761Z,11.10
2023-07-17T23:44:41.379Z,11.10
2023-07-17T23:47:09.333Z,11.10
2023-07-17T23:49:40.158Z,11.00
2023-07-17T23:52:41.714Z,11.00
2023-07-17T23:55:11.743Z,11.00
2023-07-17T23:57:39.877Z,11.00
